Terminal Aerodrome Forecast
Issued by NWS

Home | Current Version | Previous Version | Text Only | Print | Product List | Glossary Off
Versions: 1 2 3 4 5 6 7 8 9 10 11 12 13 14 15 16 17 18 19 20

000
FTUS43 KGRB 261600 AAA
TAFCWA
TAF AMD
KCWA 261630Z 2617/2712 15009KT 1 1/2SM -SN SCT015 OVC025
      TEMPO 2617/2620 3SM -SN BR OVC035
     FM262000 14005KT 3SM -SN BR SCT009 OVC015
     FM270500 VRB03KT 5SM BR OVC006
      TEMPO 2705/2709 5SM -FZDZSN=

USA.gov is the U.S. government's official web portal to all federal, state and local government web resources and services.